Timeline UpdatesTrip UpdatesNews PostsPvt PostsTravel TipsAdmin PostsConv PostsFollowed PostsChat RequestsBlog PostsPNR Posts

Disclaimer
Search
 
 
Thu Apr 17, 2014 09:59:26 ISTHomeTrainsΣChainsAtlasPNRForumGalleryNewsFAQTripsMembersLoginFeedback
No Recent News for this Train
Other Trains in the News **new
Latest...
....
Wed Nov 20, 2013 (01:22AM)
⇐ Return Journey: Train# 17405

17406/Krishna Express

Jul 04 2013 (3:43PM)
Change Departure Station:
Change Arrival Station:
Post a Train Travel TipPost a Train Travel Tip **new
Post a Comment/Question/Picture/VideoPost a Comment/Question/Picture/Video
Inaugural Run
Wed Oct 02, 1974
Pantry/Catering
✕ NO Pantry Car
✓ Catering Avbl
Loco/Rake Reversals
MUE/Mudkhed Junction (4); SC/Secunderabad Junction (10);
RSA - Rake Sharing
17405/17406/17409/17410 has RSA.
Rake/Coach Composition
Loco-SLR-GS-D6-D5-D4-D3-D2-D1-S2-S1-C1-B1-GS-GS-GS-GS-GS-SLR
Loco
ADB - SC: KZJ WDG-3A. SC - TPTY: LGD WAP4/7.
News    PNR    Forum    Time-Table    Availability    Fare Chart    Map    Arr/Dep History    Trips    Gallery    ΣChains    X/O    Timeline    
Travel Time: 22h 0m    55 halts    Distance: 1006 km    Avg Speed: 45 km/hr
Type: Mail/Express
Zone: SCR/South Central
Departs @ 23:25 (Avg 10m late)
Platform# 1
SMTWTFS
Bhokar/BOKR 
Arrives @ 21:25 +1 night (Avg 20m late)
Platform# 1
SMTWTFS
Tirupati Main/TPTY 

55 halts. 157 intermediate Stations between Bhokar and Tirupati Main

Show ALL intermediate Stations  Show Old Time-Table

#CodeStation NameX/OArrivesAvgDepartsAvgHaltPFDay#KmSpeedElevZoneAddress
1ADBAdilabad (3)  -20:45+211-141.8-248mSCRAdilabad, Andhra Pradesh
2KNVTKinwat (2)X  21:03+3521:04+361m11-96.522319mSCRKinwat, Maharashtra
3BHBKBodhadi Bujrug  21:44+1421:45+161m--1-81.862357mSCRKinwat, Maharashtra
4SHSKSahasrakund  22:14+1822:15+191m--1-51.767402mSCRNanded, Maharashtra
5HEMHimayatnagar  22:29+2222:30+221m--1-36.140398mSCRNanded, Maharashtra
6BOKR»Bhokar»  23:24+1023:25+101m110.032460mSCRBhokar, Maharashtra
7MUEMudkhed Junction (4)O↵¶00:05+000:15+1310m2221.234378mSCRMudkhed, Maharashtra
8UMRIUmriX  00:49+800:50+111m1240.765381mSCRNanded, Maharashtra
9DABDharmabad (2)O  01:17+2101:18+241m1270.135354mSCRDegaon, Maharashtra
10BSXBasar (2)X  01:35+1901:37+232m1279.953358mSCRDist Adilabad, Andhra Pradesh
11NZBNizamabad (3)  02:10+2502:15+305m12109.369384mSCRNizamabad, Andhra Pradesh
12KMCKamareddi (3)XO  03:00+3403:01+361m12161.267528mSCRKamareddi, Andhra Pradesh
13AKEAkanapetO  03:24+3703:25+381m12186.993566mSCR, Andhra Pradesh
14MZLMirzapalli (1)  03:32+3903:33+391m12197.743530mSCRMedak, Andhra Pradesh
15BMOBolarum (3)X  04:55+1604:56+171m12256.327597mSCRSecunderabad, Andhra Pradesh
16MJFMalkajgiri (3)XO  05:19+1205:20+131m22266.58535mSCRSecunderabad, Andhra Pradesh
17SCSecunderabad Junction (10)X05:45+1706:05+2320m62270.043539mSCRSecunderabad 500003, Andhra Pradesh
18MLYMoula Ali (2)X  06:13+3506:14+351m12275.757520mSCRSecunderabad, Andhra Pradesh
19CHZCharlapalli (2)  06:21+4006:22+411m22282.376523mSCRCherlapalli, Andhra Pradesh
20BGBhongir (3)X  06:49+4306:50+441m22316.397455mSCRBhongir, Andhra Pradesh
21RAGRaigir (2)X  06:54+4906:55+491m22322.873415mSCRNalgonda, Andhra Pradesh
22ALERAler (2)X  07:08+5007:09+511m22338.672366mSCRAleru, Andhra Pradesh
23PBPPembarti (2)  07:17+5407:18+561m22348.241382mSCRPembarti, Andhra Pradesh
24ZNJangaon (2)  07:26+5607:27+581m22353.775380mSCRRly Stn Rd. Jangaon, Andhra Pradesh
25RGPRaghunathpalli (2)X  07:36+1:0007:37+1:001m22365.084357mSCRRaghunathpalli, Andhra Pradesh
26GNPGhanpur (2)  07:49+1:0207:50+1:021m22381.743344mSCRWarangal / Enq Ph : 08711 220231, Andhra Pradesh
27KZJKazipet Junction (3)X  08:18+5508:20+1:012m22401.651292mSCRKazipet, Andhra Pradesh
28WLWarangal (3)  08:32+1:0808:34+1:082m12411.774271mSCRWarangal., Andhra Pradesh
29NKDNekonda (2)  08:58+1:1008:59+1:101m12441.577236mSCRNekkonda. Ph : 08718 - 221290, Andhra Pradesh
30KDMKesamudram (2)X  09:11+1:1209:12+1:131m12456.981223mSCRKesamudram. Ph : 08719 - 250360, Andhra Pradesh
31MABDMahbubabad (2)  09:23+1:1609:24+1:171m12471.9107200mSCRMahbubabad, Andhra Pradesh
32GLAGarla (2)X  09:35+1:1309:36+1:131m12491.518156mSCRKhammam dt, Andhra Pradesh
33DKJDornakal Junction (3)  09:52+1:1309:54+1:122m22496.392153mSCRWarangal District, Andhra Pradesh
34KMTKhammam (2)X  10:09+1:1410:11+1:142m12519.388118mSCRKhammam 507001, Andhra Pradesh
35BKLBona Kalu (2)O  10:30+1:1510:31+1:151m12547.28597mSCRBonakalu, Andhra Pradesh
36MDRMadhira (2)  10:43+1:1510:44+1:151m12564.18461mSCRK.Ponnavaram, Andhra Pradesh
37YPErrupalem (2)XO  10:55+5010:56+501m--2579.61857mSCRYerrupalem, Andhra Pradesh
38KIKondapalli (2)O  12:18+4412:20+442m22604.12735mSCRKondapalli, Andhra Pradesh
39BZAVijayawada Junction (10)X  12:55+4113:15+3820m102619.74524mSCRVijayawada 520001, Andhra Pradesh
40PVDPeddavadiapudi (2)  13:31+4313:32+431m--2631.66520mSCRKL University to NH 5, Andhra Pradesh
41DIGDuggirala (2)X  13:41+4313:42+441m--2641.23616mSCRDuggirala, Andhra Pradesh
42TELTenali Junction (5)  13:58+4014:00+442m32650.97716mSCRTel: 08644-227834, Andhra Pradesh
43TSRTsunduru (3)  14:09+4614:10+471m--2662.55712mSCRTsunduru, Andhra Pradesh
44NDONidubrolu (3)  14:21+4714:22+501m--2673.0699mSCRNidubrolu, Andhra Pradesh
45BPPBapatla (3)X  14:40+5314:41+541m--2693.58210mSCRBapatla, Andhra Pradesh
46CLXChirala (4)  14:52+5714:53+581m--2708.6598mSCRChirala, Andhra Pradesh
47VTMVetapalem (3)X  15:01+5915:02+1:011m--2716.5758mSCRVetapalem, Andhra Pradesh
48CJMChinnaganjam (3)  15:12+1:0215:13+1:031m--2728.9779mSCRChinna Ganjam, Andhra Pradesh
49ANBAmmanabrolu (3)X  15:24+1:0515:25+1:061m--2743.04316mSCRAmmanabrolu, Andhra Pradesh
50OGLOngole (3)  15:46+1:0215:48+1:052m32758.07012mSCROngole ph.no . 08592-280202, Andhra Pradesh
51TNRTanguturu (2)  16:04+1:0816:05+1:081m--2776.67210mSCRTanguturu, Andhra Pradesh
52SKMSingarayakonda (3)X  16:13+1:0916:14+1:101m32786.29926mSCRSingarayakonda, Andhra Pradesh
53KVZKavali (4)X  16:37+1:2416:39+1:232m22824.08221mSCRKavali, Andhra Pradesh
54BTTRBitragunta (2)X  16:51+1:2316:52+1:241m22840.44515mSCRBitragunta, Andhra Pradesh
55NLRNellore (4)  17:38+1:0517:40+1:042m32874.74821mSCRNellore, Andhra Pradesh
56VDEVedayapalem (2)XO  17:49+3217:50+291m22882.02427mSCRNellore, Andhra Pradesh
57GDRGudur Junction (3)X  19:08+2019:10+202m32913.26819mSCRGudur, Andhra Pradesh
58VDDVendodu (2)X  19:27+3619:28+361m--2932.48355mSCRNellore, Andhra Pradesh
59VKIVenkatagiri (3)  19:40+3419:41+351m22948.97377mSCRNellore District, Andhra Pradesh
60KHTSri Kalahasti (2)X  20:01+3420:02+351m12973.44268mSCRChittoor District, Andhra Pradesh
61RURenigunta Junction (5)  20:35+2920:40+265m--2996.613113mSCRChittoor District, Andhra Pradesh
62TPTY•Tirupati Main (5)•  21:25+20-121006.5-150mSCRChittoor Distt, Andhra Pradesh
Scroll to Top
Scroll to Bottom